Time;durP1;ratioP1;P1;durP2;ratioP2;P2;SDS_P1;SDS_P2;PMS_P1;PMS_P2;Temp;Humidity;BMP_temperature;BMP_pressure;BME280_temperature;BME280_humidity;BME280_pressure;Samples;Min_cycle;Max_cycle;Signal;HPM_P1;HPM_P2
2022/09/13 00:02:18;;;;;;;;;;;;;;;21.82;35.07;99037.31;4468355;32;34897;-89
2022/09/13 00:04:46;;;;;;;;;;;;;;;21.84;34.87;99049.56;4467998;32;34518;-88
2022/09/13 00:07:13;;;;;;;;;;;;;;;21.78;35.09;99036.59;4468507;32;34150;-89
2022/09/13 00:09:40;;;;;;;;;;;;;;;21.75;35.22;99041.13;4474093;32;33380;-89
2022/09/13 00:12:08;;;;;;;;;;;;;;;21.71;35.50;99044.78;4468206;32;35067;-89
2022/09/13 00:14:35;;;;;;;;;;;;;;;21.56;35.71;99040.91;4476575;32;35205;-88
2022/09/13 00:17:02;;;;;;;;;;;;;;;21.52;35.76;99045.41;4478868;32;34293;-89
2022/09/13 00:19:30;;;;;;;;;;;;;;;21.51;35.85;99042.81;4475780;31;33989;-90
2022/09/13 00:21:57;;;;;;;;;;;;;;;21.57;35.49;99042.59;4468362;32;35119;-88
2022/09/13 00:24:24;;;;;;;;;;;;;;;21.21;36.31;99034.94;4468232;32;35259;-89
2022/09/13 00:26:51;;;;;;;;;;;;;;;21.44;36.04;99036.00;4468200;32;34946;-89
2022/09/13 00:29:19;;;;;;;;;;;;;;;21.28;36.29;99036.47;4469104;32;34254;-89
2022/09/13 00:31:46;;;;;;;;;;;;;;;21.37;36.23;99025.69;4468143;32;34275;-88
2022/09/13 00:34:13;;;;;;;;;;;;;;;21.53;35.68;99027.81;4468254;32;34525;-89
2022/09/13 00:36:41;;;;;;;;;;;;;;;21.47;35.78;99035.91;4475253;32;34303;-86
2022/09/13 00:39:08;;;;;;;;;;;;;;;21.35;35.89;99027.50;4469314;32;33068;-88
2022/09/13 00:41:36;;;;;;;;;;;;;;;21.45;35.71;99027.19;4466798;32;34044;-89
2022/09/13 00:44:03;;;;;;;;;;;;;;;21.42;35.75;99027.31;4480195;32;35045;-88
2022/09/13 00:46:33;;;;;;;;;;;;;;;21.44;36.16;99031.63;4476773;32;34197;-89
2022/09/13 00:49:09;;;;;;;;;;;;;;;21.33;36.07;99031.97;4470117;32;33520;-89
2022/09/13 00:51:36;;;;;;;;;;;;;;;21.46;35.91;99035.06;4453919;32;35122;-90
2022/09/13 00:54:03;;;;;;;;;;;;;;;21.26;36.61;99029.56;4454009;32;35225;-89
2022/09/13 00:56:32;;;;;;;;;;;;;;;21.13;36.62;99024.66;4453846;32;35049;-88
2022/09/13 00:59:11;;;;;;;;;;;;;;;21.27;35.99;99029.50;4462835;32;32738;-89
2022/09/13 01:01:46;;;;;;;;;;;;;;;21.17;36.28;99028.06;4467509;32;35044;-87
2022/09/13 01:04:14;;;;;;;;;;;;;;;20.97;36.83;99031.34;4476517;32;34189;-88
2022/09/13 01:06:41;;;;;;;;;;;;;;;20.89;37.26;99028.94;4482904;32;34239;-88
2022/09/13 01:09:09;;;;;;;;;;;;;;;21.02;37.04;99031.19;4469592;32;33377;-89
2022/09/13 01:11:47;;;;;;;;;;;;;;;20.96;37.07;99028.78;4468110;32;34032;-88
2022/09/13 01:14:18;;;;;;;;;;;;;;;20.90;37.31;99033.31;4460486;32;35265;-89
2022/09/13 01:16:45;;;;;;;;;;;;;;;20.89;36.99;99028.94;4457128;32;34763;-86
2022/09/13 01:19:14;;;;;;;;;;;;;;;20.88;37.19;99039.56;4479421;32;34290;-90
2022/09/13 01:22:00;;;;;;;;;;;;;;;20.94;37.21;99036.69;4483238;32;35092;-89
2022/09/13 01:25:05;;;;;;;;;;;;;;;20.97;36.94;99033.13;4480323;32;34217;-89
2022/09/13 01:27:51;;;;;;;;;;;;;;;20.86;37.33;99031.69;4401006;32;34814;-89
2022/09/13 01:30:22;;;;;;;;;;;;;;;20.56;38.11;99036.09;4390720;32;33775;-88
2022/09/13 01:32:53;;;;;;;;;;;;;;;20.68;37.71;99029.59;4445628;32;34870;-90
2022/09/13 01:35:32;;;;;;;;;;;;;;;20.80;37.21;99038.94;4473521;31;34287;-88
2022/09/13 01:37:59;;;;;;;;;;;;;;;20.89;36.83;99026.31;4472895;32;34830;-89
2022/09/13 01:40:28;;;;;;;;;;;;;;;20.99;36.54;99028.69;4483425;32;33343;-88
2022/09/13 01:43:13;;;;;;;;;;;;;;;20.82;36.80;99027.41;4483692;32;34754;-89
2022/09/13 01:45:44;;;;;;;;;;;;;;;20.88;36.76;99029.88;4482524;31;35168;-89
2022/09/13 01:48:20;;;;;;;;;;;;;;;20.94;36.37;99025.31;4476977;32;34228;-90
2022/09/13 01:50:47;;;;;;;;;;;;;;;20.98;36.04;99024.28;4453649;32;33508;-88
2022/09/13 01:53:32;;;;;;;;;;;;;;;21.08;35.80;99023.09;4467657;32;34959;-88
2022/09/13 01:56:00;;;;;;;;;;;;;;;20.79;36.53;99016.97;4467770;32;33929;-88
2022/09/13 01:58:38;;;;;;;;;;;;;;;20.85;36.31;99010.66;4474992;32;35180;-89
2022/09/13 02:01:14;;;;;;;;;;;;;;;20.84;36.23;99011.56;4469052;32;35049;-89
2022/09/13 02:04:00;;;;;;;;;;;;;;;20.74;36.24;99013.62;4472725;32;34096;-90
2022/09/13 02:06:32;;;;;;;;;;;;;;;20.79;36.35;99011.69;4457112;32;35131;-89
2022/09/13 02:09:01;;;;;;;;;;;;;;;20.92;36.11;99013.97;4464800;32;33989;-89
2022/09/13 02:11:28;;;;;;;;;;;;;;;20.76;36.18;99003.91;4455661;32;34211;-89
2022/09/13 02:14:04;;;;;;;;;;;;;;;20.67;36.35;99011.22;4479828;32;34285;-88
2022/09/13 02:16:35;;;;;;;;;;;;;;;20.67;36.43;99001.53;4454680;32;34302;-87
2022/09/13 02:19:06;;;;;;;;;;;;;;;20.75;36.11;99004.78;4467489;32;34387;-89
2022/09/13 02:21:38;;;;;;;;;;;;;;;20.70;36.23;99009.34;4453250;32;33341;-88
2022/09/13 02:24:15;;;;;;;;;;;;;;;20.48;36.72;99002.97;4454922;32;34139;-88
2022/09/13 02:26:45;;;;;;;;;;;;;;;20.60;36.69;99006.12;4452982;32;35245;-85
2022/09/13 02:29:15;;;;;;;;;;;;;;;20.58;36.44;98997.44;4468212;32;33631;-89
2022/09/13 02:32:03;;;;;;;;;;;;;;;20.56;36.40;98995.75;4482321;31;33731;-89
2022/09/13 02:34:31;;;;;;;;;;;;;;;20.60;36.39;98994.72;4464664;32;33943;-88
2022/09/13 02:36:58;;;;;;;;;;;;;;;20.41;37.06;98991.75;4454964;32;34499;-88
2022/09/13 02:39:26;;;;;;;;;;;;;;;20.27;37.39;98996.59;4455278;32;34229;-87
2022/09/13 02:41:55;;;;;;;;;;;;;;;20.36;37.20;98991.06;4467092;32;34160;-88
2022/09/13 02:44:36;;;;;;;;;;;;;;;20.34;37.11;98999.00;4464194;32;33610;-88
2022/09/13 02:47:10;;;;;;;;;;;;;;;20.65;36.71;98998.12;4454066;32;33959;-90
2022/09/13 02:49:53;;;;;;;;;;;;;;;20.19;37.65;98999.44;4466943;32;34265;-88
2022/09/13 02:52:29;;;;;;;;;;;;;;;20.20;37.48;99001.19;4467183;32;34308;-89
2022/09/13 02:54:59;;;;;;;;;;;;;;;20.32;37.25;98985.00;4461486;32;34006;-89
2022/09/13 02:57:27;;;;;;;;;;;;;;;20.37;37.10;98983.09;4468011;32;33976;-88
2022/09/13 02:59:55;;;;;;;;;;;;;;;20.27;37.09;98976.41;4482162;32;33851;-84
2022/09/13 03:02:24;;;;;;;;;;;;;;;20.45;36.76;98984.63;4454685;32;34254;-89
2022/09/13 03:04:51;;;;;;;;;;;;;;;20.31;36.96;98977.19;4466794;32;35162;-89
2022/09/13 03:07:18;;;;;;;;;;;;;;;20.15;37.46;98974.09;4452706;32;34043;-88
2022/09/13 03:09:51;;;;;;;;;;;;;;;20.16;37.67;98968.81;4467704;32;34053;-89
2022/09/13 03:12:37;;;;;;;;;;;;;;;20.13;37.80;98978.56;4466812;32;34231;-88
2022/09/13 03:15:07;;;;;;;;;;;;;;;19.89;38.15;98973.09;4475016;32;34291;-89
2022/09/13 03:17:45;;;;;;;;;;;;;;;19.99;38.10;98967.56;4481644;31;33930;-88
2022/09/13 03:20:13;;;;;;;;;;;;;;;20.16;37.45;98973.22;4458633;32;33756;-90
2022/09/13 03:22:59;;;;;;;;;;;;;;;19.97;37.77;98962.38;4452796;32;34189;-89
2022/09/13 03:25:32;;;;;;;;;;;;;;;20.13;37.47;98968.03;4477549;32;35191;-89
2022/09/13 03:28:09;;;;;;;;;;;;;;;20.20;37.16;98956.44;4482413;32;34508;-90
2022/09/13 03:30:37;;;;;;;;;;;;;;;20.21;36.94;98957.28;4463562;32;33593;-88
2022/09/13 03:33:16;;;;;;;;;;;;;;;20.15;37.31;98958.31;4452104;32;32112;-89
2022/09/13 03:35:44;;;;;;;;;;;;;;;20.07;37.64;98957.69;4461525;32;33528;-89
2022/09/13 03:38:12;;;;;;;;;;;;;;;19.76;37.99;98963.81;4467639;32;34423;-90
2022/09/13 03:40:48;;;;;;;;;;;;;;;19.70;38.29;98956.13;4466162;32;34094;-90
2022/09/13 03:43:29;;;;;;;;;;;;;;;19.74;38.32;98955.13;4471362;32;34346;-90
2022/09/13 03:45:57;;;;;;;;;;;;;;;19.81;38.30;98953.16;4455298;32;33679;-87
2022/09/13 03:48:26;;;;;;;;;;;;;;;20.02;37.58;98954.31;4454427;32;35225;-87
2022/09/13 03:50:54;;;;;;;;;;;;;;;20.06;37.21;98955.97;4469716;32;34831;-87
2022/09/13 03:53:23;;;;;;;;;;;;;;;20.08;37.38;98955.03;4484122;32;33034;-87
2022/09/13 03:55:51;;;;;;;;;;;;;;;20.08;37.40;98957.66;4470224;32;33742;-88
2022/09/13 03:58:18;;;;;;;;;;;;;;;20.03;37.37;98950.78;4479655;32;33963;-82
2022/09/13 04:00:46;;;;;;;;;;;;;;;20.13;37.14;98947.84;4482026;32;34896;-87
2022/09/13 04:03:14;;;;;;;;;;;;;;;20.10;37.12;98953.19;4484158;32;33503;-86
2022/09/13 04:05:41;;;;;;;;;;;;;;;20.01;37.21;98948.22;4456900;32;33991;-87
2022/09/13 04:08:08;;;;;;;;;;;;;;;19.81;37.84;98943.53;4476352;32;34266;-88
2022/09/13 04:10:36;;;;;;;;;;;;;;;19.90;37.81;98942.37;4457046;32;35148;-88
2022/09/13 04:13:04;;;;;;;;;;;;;;;19.88;37.91;98957.34;4469205;32;33080;-86
2022/09/13 04:15:32;;;;;;;;;;;;;;;20.04;37.38;98953.38;4462938;32;34014;-85
2022/09/13 04:18:00;;;;;;;;;;;;;;;20.03;37.48;98958.69;4474290;32;35252;-89
2022/09/13 04:20:28;;;;;;;;;;;;;;;20.02;37.56;98964.84;4475881;32;34401;-84
2022/09/13 04:22:59;;;;;;;;;;;;;;;19.98;37.58;98960.59;4454530;32;34880;-85
2022/09/13 04:25:26;;;;;;;;;;;;;;;20.07;37.35;98957.69;4476412;32;34871;-88
2022/09/13 04:27:54;;;;;;;;;;;;;;;20.19;36.97;98959.94;4470210;32;34518;-87
2022/09/13 04:30:22;;;;;;;;;;;;;;;20.13;37.15;98962.78;4470306;32;35096;-88
2022/09/13 04:32:49;;;;;;;;;;;;;;;19.97;37.35;98957.09;4475729;32;33268;-87
2022/09/13 04:35:18;;;;;;;;;;;;;;;19.96;37.48;98955.34;4474192;32;34853;-84
2022/09/13 04:37:45;;;;;;;;;;;;;;;20.11;37.12;98964.56;4459197;32;35204;-85
2022/09/13 04:40:13;;;;;;;;;;;;;;;20.05;37.29;98967.41;4459381;32;34058;-82
2022/09/13 04:42:40;;;;;;;;;;;;;;;20.11;37.08;98954.03;4472260;32;33428;-87
2022/09/13 04:45:08;;;;;;;;;;;;;;;20.12;37.20;98958.44;4468300;32;34374;-81
2022/09/13 04:47:35;;;;;;;;;;;;;;;20.31;37.11;98956.97;4476235;32;32759;-89
2022/09/13 04:50:02;;;;;;;;;;;;;;;20.66;36.73;98952.41;4476237;32;33867;-88
2022/09/13 04:52:30;;;;;;;;;;;;;;;21.21;35.76;98961.12;4476657;32;33255;-85
2022/09/13 04:55:00;;;;;;;;;;;;;;;21.57;35.18;98961.69;4476987;32;34232;-88
2022/09/13 04:57:28;;;;;;;;;;;;;;;21.90;34.66;98966.69;4474017;32;34152;-85
2022/09/13 04:59:55;;;;;;;;;;;;;;;22.17;33.98;98956.91;4483538;32;34169;-83
2022/09/13 05:02:22;;;;;;;;;;;;;;;22.57;33.67;98955.34;4483804;32;33460;-86
2022/09/13 05:04:49;;;;;;;;;;;;;;;22.74;33.65;98950.28;4483420;32;34332;-85
2022/09/13 05:07:17;;;;;;;;;;;;;;;23.00;32.91;98957.19;4482888;32;34356;-85
2022/09/13 05:09:44;;;;;;;;;;;;;;;23.31;32.44;98955.88;4468177;32;34167;-85
2022/09/13 05:12:12;;;;;;;;;;;;;;;23.35;32.33;98946.91;4454305;32;32853;-86
2022/09/13 05:14:39;;;;;;;;;;;;;;;23.46;32.03;98951.72;4468955;32;33818;-86
2022/09/13 05:17:07;;;;;;;;;;;;;;;23.55;31.85;98953.97;4468334;32;33911;-86
2022/09/13 05:19:34;;;;;;;;;;;;;;;23.62;32.23;98960.72;4467939;32;34097;-83
2022/09/13 05:22:01;;;;;;;;;;;;;;;23.79;31.75;98958.22;4468132;32;33208;-86
2022/09/13 05:24:28;;;;;;;;;;;;;;;23.88;32.12;98971.97;4457097;32;34388;-86
2022/09/13 05:26:56;;;;;;;;;;;;;;;23.83;32.59;98958.97;4469451;32;33873;-86
2022/09/13 05:29:23;;;;;;;;;;;;;;;23.68;32.92;98962.28;4482222;32;35053;-83
2022/09/13 05:31:50;;;;;;;;;;;;;;;23.36;33.65;98959.19;4469203;32;33341;-84
2022/09/13 05:34:18;;;;;;;;;;;;;;;23.16;33.94;98957.41;4458075;32;34119;-85
2022/09/13 05:36:45;;;;;;;;;;;;;;;23.63;33.28;98959.78;4469906;32;34257;-85
2022/09/13 05:39:21;;;;;;;;;;;;;;;23.69;32.94;98956.91;4462921;32;34278;-86
2022/09/13 05:42:08;;;;;;;;;;;;;;;22.71;34.66;98960.97;4470166;32;33386;-88
2022/09/13 05:44:35;;;;;;;;;;;;;;;22.94;34.18;98961.84;4474575;32;33684;-88
2022/09/13 05:47:02;;;;;;;;;;;;;;;22.80;34.55;98965.88;4467791;32;34496;-88
2022/09/13 05:49:29;;;;;;;;;;;;;;;22.70;35.29;98961.03;4481749;31;33981;-88
2022/09/13 05:51:57;;;;;;;;;;;;;;;23.11;34.46;98967.31;4483557;32;32984;-88
2022/09/13 05:54:24;;;;;;;;;;;;;;;23.50;33.29;98961.25;4483678;31;33554;-88
2022/09/13 05:56:53;;;;;;;;;;;;;;;23.54;33.05;98965.47;4483494;32;33823;-89
2022/09/13 05:59:20;;;;;;;;;;;;;;;23.46;33.64;98967.59;4483228;32;34110;-85
2022/09/13 06:01:47;;;;;;;;;;;;;;;23.34;34.22;98976.06;4478900;32;32997;-85
2022/09/13 06:04:15;;;;;;;;;;;;;;;22.38;35.99;98968.41;4477658;32;35151;-91
2022/09/13 06:06:42;;;;;;;;;;;;;;;22.88;35.08;98973.50;4453546;32;34254;-88
2022/09/13 06:09:09;;;;;;;;;;;;;;;21.89;36.69;98990.47;4469204;32;34470;-91
2022/09/13 06:11:37;;;;;;;;;;;;;;;22.57;35.80;98989.69;4477167;32;33221;-90
2022/09/13 06:14:04;;;;;;;;;;;;;;;22.26;36.65;98984.75;4467599;32;34706;-86
2022/09/13 06:16:31;;;;;;;;;;;;;;;22.05;36.73;98981.09;4475930;32;35245;-92
2022/09/13 06:18:59;;;;;;;;;;;;;;;22.47;36.58;98977.78;4483144;32;34581;-91
2022/09/13 06:21:27;;;;;;;;;;;;;;;21.90;37.84;98976.38;4483393;32;33397;-91
2022/09/13 06:23:55;;;;;;;;;;;;;;;22.66;36.33;98968.22;4479403;32;34575;-90
2022/09/13 06:26:23;;;;;;;;;;;;;;;22.17;37.90;98979.81;4475034;32;34429;-91
2022/09/13 06:28:51;;;;;;;;;;;;;;;22.22;36.06;98981.34;4463610;32;34255;-91
2022/09/13 06:31:20;;;;;;;;;;;;;;;22.67;34.12;98975.22;4458851;32;33956;-91
2022/09/13 06:33:47;;;;;;;;;;;;;;;22.44;34.35;98969.97;4483156;32;34350;-91
2022/09/13 06:36:18;;;;;;;;;;;;;;;22.78;33.91;98973.00;4469207;32;35347;-91
2022/09/13 06:38:47;;;;;;;;;;;;;;;22.62;35.50;98977.19;4462043;32;33992;-92
2022/09/13 06:41:17;;;;;;;;;;;;;;;22.26;35.77;98982.09;4456708;32;34089;-90
2022/09/13 06:43:45;;;;;;;;;;;;;;;22.91;33.38;98973.41;4458709;32;33573;-87
2022/09/13 06:46:16;;;;;;;;;;;;;;;21.81;34.54;98978.41;4453080;32;34392;-87
2022/09/13 06:48:51;;;;;;;;;;;;;;;22.22;34.07;98968.16;4465824;32;33828;-88
2022/09/13 06:51:19;;;;;;;;;;;;;;;21.76;34.61;98975.09;4467333;32;33230;-92
2022/09/13 06:53:47;;;;;;;;;;;;;;;22.17;34.99;98964.81;4467429;32;34565;-91
2022/09/13 06:56:16;;;;;;;;;;;;;;;22.17;34.27;98979.81;4470214;32;34883;-90
2022/09/13 06:58:44;;;;;;;;;;;;;;;21.56;35.53;98985.50;4468239;32;35140;-93
2022/09/13 07:01:18;;;;;;;;;;;;;;;22.22;34.81;98989.28;4477680;32;34469;-93
2022/09/13 07:03:48;;;;;;;;;;;;;;;22.37;34.76;98989.63;4468172;32;35049;-90
2022/09/13 07:06:19;;;;;;;;;;;;;;;22.81;33.10;98983.47;4467668;32;34007;-92
2022/09/13 07:08:50;;;;;;;;;;;;;;;22.39;34.48;98987.75;4467112;32;35083;-93
2022/09/13 07:11:18;;;;;;;;;;;;;;;22.68;34.11;98987.50;4457151;32;33302;-91
2022/09/13 07:13:51;;;;;;;;;;;;;;;22.68;33.85;98984.00;4472129;32;34317;-90
2022/09/13 07:16:19;;;;;;;;;;;;;;;22.70;33.52;98990.97;4457113;32;34163;-93
2022/09/13 07:18:50;;;;;;;;;;;;;;;22.51;33.66;98988.16;4485074;32;34072;-95
2022/09/13 07:21:17;;;;;;;;;;;;;;;22.14;34.78;98990.50;4470161;32;33299;-86
2022/09/13 07:23:44;;;;;;;;;;;;;;;22.11;34.77;98996.69;4484116;32;34011;-93
2022/09/13 07:26:11;;;;;;;;;;;;;;;22.38;33.96;98991.34;4484900;32;34160;-93
2022/09/13 07:28:41;;;;;;;;;;;;;;;22.07;35.54;99003.00;4484428;32;34186;-91
2022/09/13 07:31:09;;;;;;;;;;;;;;;22.94;34.23;99001.50;4484262;32;32806;-93
2022/09/13 07:33:38;;;;;;;;;;;;;;;23.18;34.14;98989.06;4484500;32;34760;-93
2022/09/13 07:36:05;;;;;;;;;;;;;;;23.41;32.58;98996.03;4470521;32;34890;-92
2022/09/13 07:38:37;;;;;;;;;;;;;;;21.99;35.47;99000.66;4470230;32;34235;-86
2022/09/13 07:41:05;;;;;;;;;;;;;;;22.93;33.92;98994.50;4468139;32;34307;-85
2022/09/13 07:43:35;;;;;;;;;;;;;;;22.14;35.47;99007.19;4468878;32;34077;-92
2022/09/13 07:46:12;;;;;;;;;;;;;;;22.05;36.00;99007.50;4468896;32;34428;-93
2022/09/13 07:48:40;;;;;;;;;;;;;;;22.87;33.84;98998.19;4469587;32;34055;-95
2022/09/13 07:51:19;;;;;;;;;;;;;;;23.55;33.16;98998.94;4469407;32;33224;-95
2022/09/13 07:53:47;;;;;;;;;;;;;;;23.70;33.14;99000.09;4455352;32;34242;-94
2022/09/13 07:56:20;;;;;;;;;;;;;;;23.23;33.39;99000.31;4468080;32;34227;-91
2022/09/13 07:58:48;;;;;;;;;;;;;;;22.72;33.54;99004.09;4468727;32;33844;-92
2022/09/13 08:01:21;;;;;;;;;;;;;;;23.23;33.87;99001.19;4468337;32;33923;-82
2022/09/13 08:03:53;;;;;;;;;;;;;;;23.02;33.94;98994.97;4455409;32;33866;-91
2022/09/13 08:06:20;;;;;;;;;;;;;;;23.70;33.08;99000.09;4468519;32;35361;-89
2022/09/13 08:08:47;;;;;;;;;;;;;;;24.09;33.09;99002.78;4468450;32;34825;-85
2022/09/13 08:11:18;;;;;;;;;;;;;;;23.47;33.20;99001.06;4454597;32;33436;-87
2022/09/13 08:13:45;;;;;;;;;;;;;;;24.24;32.14;99002.09;4454206;32;34261;-87
2022/09/13 08:16:13;;;;;;;;;;;;;;;24.62;32.22;99001.25;4468299;32;34134;-87
2022/09/13 08:18:44;;;;;;;;;;;;;;;24.69;31.92;99002.69;4468517;32;34198;-86
2022/09/13 08:21:11;;;;;;;;;;;;;;;24.11;32.89;99005.38;4468587;32;33694;-88
2022/09/13 08:23:38;;;;;;;;;;;;;;;24.42;33.00;99004.84;4468302;32;34753;-83
2022/09/13 08:26:06;;;;;;;;;;;;;;;23.31;34.14;99014.94;4468033;32;34701;-85
2022/09/13 08:28:34;;;;;;;;;;;;;;;24.21;33.54;99002.25;4468374;32;35185;-88
2022/09/13 08:31:12;;;;;;;;;;;;;;;24.67;32.68;99009.87;4468941;32;32687;-82
2022/09/13 08:33:41;;;;;;;;;;;;;;;24.54;32.54;99003.41;4468563;32;34070;-88
2022/09/13 08:36:12;;;;;;;;;;;;;;;23.51;34.40;99000.88;4468184;32;34013;-90
2022/09/13 08:38:47;;;;;;;;;;;;;;;24.19;32.95;99003.22;4468339;32;34451;-88
2022/09/13 08:41:32;;;;;;;;;;;;;;;23.38;34.05;99001.47;4468349;32;34427;-85
2022/09/13 08:44:00;;;;;;;;;;;;;;;23.57;34.23;98997.13;4468273;32;35047;-85
2022/09/13 08:46:27;;;;;;;;;;;;;;;23.86;33.35;99000.28;4468278;32;35018;-86
2022/09/13 08:48:55;;;;;;;;;;;;;;;23.96;33.28;99001.63;4468146;32;34538;-83
2022/09/13 08:51:25;;;;;;;;;;;;;;;24.64;31.91;98994.97;4468216;32;33483;-86
2022/09/13 08:53:52;;;;;;;;;;;;;;;23.88;32.47;99004.59;4468160;32;34842;-91
2022/09/13 08:56:22;;;;;;;;;;;;;;;23.49;33.04;98999.22;4453974;32;33886;-87
2022/09/13 08:59:08;;;;;;;;;;;;;;;23.05;33.77;98996.63;4467927;32;34861;-84
2022/09/13 09:01:46;;;;;;;;;;;;;;;23.42;33.42;98995.97;4468183;32;33569;-88
2022/09/13 09:04:29;;;;;;;;;;;;;;;23.77;33.61;98990.97;4453994;32;34273;-87
2022/09/13 09:07:12;;;;;;;;;;;;;;;23.70;33.70;98989.53;4453939;32;34002;-86
2022/09/13 09:10:00;;;;;;;;;;;;;;;24.54;32.03;98988.37;4454055;32;35066;-80
2022/09/13 09:12:37;;;;;;;;;;;;;;;24.12;32.24;98991.19;4467802;32;33525;-86
2022/09/13 09:15:13;;;;;;;;;;;;;;;24.41;32.03;98987.25;4467684;32;35119;-88
2022/09/13 09:18:01;;;;;;;;;;;;;;;24.10;33.18;98987.78;4453906;32;34373;-87
2022/09/13 09:20:47;;;;;;;;;;;;;;;24.98;31.57;98982.75;4453723;32;35107;-86
2022/09/13 09:23:16;;;;;;;;;;;;;;;25.04;30.34;98970.97;4468073;32;34316;-85
2022/09/13 09:25:53;;;;;;;;;;;;;;;25.07;30.04;98970.81;4454311;32;34346;-88
2022/09/13 09:28:20;;;;;;;;;;;;;;;25.10;31.01;98963.59;4453735;32;34335;-85
2022/09/13 09:30:53;;;;;;;;;;;;;;;25.13;30.54;98967.91;4467894;32;35147;-85
2022/09/13 09:33:31;;;;;;;;;;;;;;;25.88;29.47;98969.38;4468069;32;34427;-86
2022/09/13 09:36:00;;;;;;;;;;;;;;;25.45;29.81;98959.16;4467943;32;34438;-85
2022/09/13 09:38:45;;;;;;;;;;;;;;;25.61;28.97;98953.94;4466925;32;35245;-88
2022/09/13 09:41:13;;;;;;;;;;;;;;;24.95;29.89;98961.66;4467632;32;34326;-87
2022/09/13 09:43:43;;;;;;;;;;;;;;;25.42;31.03;98964.63;4467925;32;32718;-84
2022/09/13 09:46:11;;;;;;;;;;;;;;;26.14;29.77;98965.34;4453723;32;34159;-86
2022/09/13 09:48:51;;;;;;;;;;;;;;;25.88;29.27;98956.97;4453867;32;35237;-84
2022/09/13 09:51:18;;;;;;;;;;;;;;;25.43;28.77;98960.19;4453640;32;34269;-87
2022/09/13 09:53:47;;;;;;;;;;;;;;;25.46;30.37;98957.37;4453776;32;34178;-84
2022/09/13 09:56:18;;;;;;;;;;;;;;;25.29;31.22;98954.72;4453228;32;33976;-85
2022/09/13 09:58:46;;;;;;;;;;;;;;;25.04;29.98;98942.66;4453761;32;34303;-85
2022/09/13 10:01:33;;;;;;;;;;;;;;;25.00;30.47;98939.31;4453690;32;34040;-87
2022/09/13 10:04:10;;;;;;;;;;;;;;;25.19;29.52;98941.94;4467942;32;33569;-86
2022/09/13 10:06:38;;;;;;;;;;;;;;;24.81;29.86;98932.31;4467770;32;34234;-86
2022/09/13 10:09:06;;;;;;;;;;;;;;;23.97;31.10;98919.44;4467653;32;34589;-85
2022/09/13 10:11:50;;;;;;;;;;;;;;;24.78;30.65;98922.75;4453492;32;34315;-87
2022/09/13 10:14:28;;;;;;;;;;;;;;;25.58;30.33;98924.03;4453594;32;33414;-82
2022/09/13 10:17:15;;;;;;;;;;;;;;;25.30;30.09;98924.59;4467660;32;35129;-85
2022/09/13 10:19:57;;;;;;;;;;;;;;;25.80;30.02;98927.31;4467687;32;34959;-85
2022/09/13 10:22:25;;;;;;;;;;;;;;;26.20;28.64;98912.69;4467546;32;34645;-86
2022/09/13 10:24:52;;;;;;;;;;;;;;;26.64;28.46;98914.69;4453379;32;33437;-85
2022/09/13 10:27:20;;;;;;;;;;;;;;;26.47;27.98;98919.25;4467508;32;35129;-86
2022/09/13 10:29:51;;;;;;;;;;;;;;;26.57;27.92;98910.66;4467468;32;34460;-86
2022/09/13 10:32:18;;;;;;;;;;;;;;;26.88;27.25;98915.06;4467441;32;34389;-86
2022/09/13 10:34:45;;;;;;;;;;;;;;;25.59;28.14;98915.97;4453515;32;33384;-84
2022/09/13 10:37:21;;;;;;;;;;;;;;;26.10;27.29;98905.31;4467254;32;34959;-87
2022/09/13 10:39:53;;;;;;;;;;;;;;;26.62;26.93;98892.66;4453577;32;35429;-86
2022/09/13 10:42:22;;;;;;;;;;;;;;;26.77;27.50;98895.37;4467353;32;34290;-86
2022/09/13 10:44:54;;;;;;;;;;;;;;;26.78;26.20;98899.72;4467137;32;33139;-85
2022/09/13 10:47:26;;;;;;;;;;;;;;;26.13;26.90;98903.34;4453012;32;34335;-84
2022/09/13 10:49:54;;;;;;;;;;;;;;;27.02;25.72;98898.31;4452657;32;33869;-85
2022/09/13 10:52:24;;;;;;;;;;;;;;;26.29;27.18;98905.16;4467351;32;34088;-86
2022/09/13 10:54:52;;;;;;;;;;;;;;;25.52;28.77;98903.97;4467158;32;34357;-85
2022/09/13 10:57:36;;;;;;;;;;;;;;;26.09;29.29;98900.94;4453235;32;34273;-87
2022/09/13 11:00:09;;;;;;;;;;;;;;;25.86;28.09;98912.81;4467152;32;35081;-85
2022/09/13 11:02:45;;;;;;;;;;;;;;;26.19;28.69;98905.66;4467073;32;34626;-86
2022/09/13 11:05:14;;;;;;;;;;;;;;;26.41;27.20;98889.38;4467016;32;33456;-85
2022/09/13 11:07:45;;;;;;;;;;;;;;;26.66;28.16;98899.50;4452751;32;34977;-85
2022/09/13 11:10:27;;;;;;;;;;;;;;;27.04;26.35;98893.75;4467229;32;35186;-84
2022/09/13 11:13:03;;;;;;;;;;;;;;;27.43;26.36;98903.03;4466787;32;34300;-85
2022/09/13 11:15:30;;;;;;;;;;;;;;;26.47;26.63;98882.03;4466894;32;33998;-87
2022/09/13 11:18:17;;;;;;;;;;;;;;;26.91;26.07;98885.66;4467033;32;33812;-85
2022/09/13 11:20:53;;;;;;;;;;;;;;;26.37;27.48;98889.66;4466604;32;35198;-86
2022/09/13 11:23:24;;;;;;;;;;;;;;;26.99;25.57;98889.66;4466612;32;34093;-84
2022/09/13 11:25:54;;;;;;;;;;;;;;;27.03;27.09;98892.03;4466658;32;34353;-86
2022/09/13 11:28:40;;;;;;;;;;;;;;;26.51;26.85;98883.56;4466666;32;34306;-83
2022/09/13 11:31:26;;;;;;;;;;;;;;;26.59;27.02;98881.31;4466420;32;33721;-85
2022/09/13 11:33:56;;;;;;;;;;;;;;;26.24;26.67;98883.28;4466563;32;33714;-83
2022/09/13 11:36:42;;;;;;;;;;;;;;;25.62;27.90;98891.06;4466484;32;33139;-86
2022/09/13 11:39:29;;;;;;;;;;;;;;;26.73;26.21;98875.22;4466767;32;33816;-86
2022/09/13 11:42:19;;;;;;;;;;;;;;;27.04;26.09;98867.16;4466411;32;34311;-85
2022/09/13 11:44:56;;;;;;;;;;;;;;;27.10;25.28;98856.16;4452371;32;34175;-85
2022/09/13 11:47:23;;;;;;;;;;;;;;;27.15;25.63;98856.75;4452513;32;33440;-88
2022/09/13 11:49:53;;;;;;;;;;;;;;;27.20;27.28;98864.47;4466589;32;34156;-87
2022/09/13 11:52:31;;;;;;;;;;;;;;;26.73;26.88;98859.25;4452225;32;34390;-85
2022/09/13 11:55:17;;;;;;;;;;;;;;;26.98;26.41;98848.91;4452316;32;33865;-86
2022/09/13 11:58:10;;;;;;;;;;;;;;;27.48;25.69;98854.81;4452574;32;33523;-86
2022/09/13 12:00:40;;;;;;;;;;;;;;;27.12;26.90;98843.66;4464735;32;34940;-87
2022/09/13 12:03:34;;;;;;;;;;;;;;;27.83;24.65;98832.19;4454759;32;35070;-87
2022/09/13 12:06:21;;;;;;;;;;;;;;;27.20;26.60;98840.53;4465677;32;34426;-87
2022/09/13 12:08:49;;;;;;;;;;;;;;;27.35;26.50;98849.34;4468353;32;33562;-85
2022/09/13 12:11:24;;;;;;;;;;;;;;;27.67;25.85;98843.88;4468625;32;34296;-86
2022/09/13 12:13:55;;;;;;;;;;;;;;;28.06;24.93;98846.69;4454473;32;35250;-87
2022/09/13 12:16:28;;;;;;;;;;;;;;;27.59;25.17;98845.19;4454274;32;34087;-86
2022/09/13 12:19:06;;;;;;;;;;;;;;;28.01;24.80;98838.16;4442125;32;32020;-84
2022/09/13 12:21:38;;;;;;;;;;;;;;;27.58;25.85;98832.84;4468162;32;34191;-83
2022/09/13 12:24:24;;;;;;;;;;;;;;;27.96;25.20;98829.59;4454412;32;34407;-87
2022/09/13 12:27:03;;;;;;;;;;;;;;;27.97;26.54;98839.31;4454469;32;33741;-88
2022/09/13 12:29:35;;;;;;;;;;;;;;;27.68;26.32;98838.44;4454254;32;34223;-84
2022/09/13 12:32:03;;;;;;;;;;;;;;;27.79;26.43;98828.00;4468151;32;34326;-88
2022/09/13 12:34:37;;;;;;;;;;;;;;;27.82;25.83;98819.81;4468384;32;35260;-84
2022/09/13 12:37:08;;;;;;;;;;;;;;;27.18;26.31;98829.09;4454358;32;34823;-87
2022/09/13 12:40:10;;;;;;;;;;;;;;;27.90;26.20;98824.66;4468227;32;34016;-86
2022/09/13 12:42:47;;;;;;;;;;;;;;;26.66;27.48;98826.84;4434546;32;34346;-86
2022/09/13 12:45:20;;;;;;;;;;;;;;;28.07;25.34;98820.91;4468216;32;34262;-86
2022/09/13 12:48:23;;;;;;;;;;;;;;;27.81;25.98;98825.25;4453993;32;34391;-88
2022/09/13 12:50:55;;;;;;;;;;;;;;;27.76;26.89;98824.66;4403927;32;33505;-88
2022/09/13 12:53:37;;;;;;;;;;;;;;;28.05;26.08;98813.00;4443975;32;34026;-86
2022/09/13 12:56:11;;;;;;;;;;;;;;;28.12;26.72;98816.16;4468172;32;34544;-87
2022/09/13 12:58:44;;;;;;;;;;;;;;;27.23;27.46;98815.50;4468089;32;34405;-85
2022/09/13 13:01:16;;;;;;;;;;;;;;;26.86;28.03;98813.25;4440435;32;871117;-85
2022/09/13 13:03:59;;;;;;;;;;;;;;;27.44;27.44;98810.69;4453774;32;33995;-87
2022/09/13 13:06:31;;;;;;;;;;;;;;;26.57;28.83;98806.97;4468213;32;34438;-86
2022/09/13 13:09:06;;;;;;;;;;;;;;;27.76;27.43;98814.00;4454025;32;34886;-87
2022/09/13 13:11:41;;;;;;;;;;;;;;;27.89;26.73;98813.16;4454099;32;33323;-86
2022/09/13 13:14:24;;;;;;;;;;;;;;;28.19;26.59;98809.47;4453822;32;34980;-89